Time;durP1;ratioP1;P1;durP2;ratioP2;P2;SDS_P1;SDS_P2;PMS_P1;PMS_P2;Temp;Humidity;BMP_temperature;BMP_pressure;BME280_temperature;BME280_humidity;BME280_pressure;Samples;Min_cycle;Max_cycle;Signal;HPM_P1;HPM_P2
2022/11/05 00:09:28;;;;;;;15.48;6.45;;;;;;;3.04;62.17;100095.59;4943948;29;20031;-92
2022/11/05 00:11:18;;;;;;;6.28;3.72;;;;;;;3.17;60.22;100104.44;4941074;29;20099;-90
2022/11/05 00:16:43;;;;;;;7.47;3.22;;;;;;;3.40;59.54;100144.81;4935738;29;20054;-91
2022/11/05 00:19:09;;;;;;;6.20;3.25;;;;;;;3.12;59.52;100112.47;4933798;29;20055;-90
2022/11/05 00:27:09;;;;;;;5.15;2.92;;;;;;;3.28;59.94;100141.41;4942540;29;20183;-89
2022/11/05 00:29:35;;;;;;;5.95;3.28;;;;;;;3.05;59.91;100115.34;4918841;29;20058;-90
2022/11/05 00:32:02;;;;;;;6.13;3.30;;;;;;;2.94;60.07;100106.22;4919056;28;20035;-91
2022/11/05 00:34:28;;;;;;;6.47;3.13;;;;;;;3.09;59.77;100129.19;4918516;29;20353;-92
2022/11/05 00:36:55;;;;;;;5.22;3.03;;;;;;;2.94;60.33;100130.53;4917564;29;20465;-91
2022/11/05 00:39:21;;;;;;;7.63;3.63;;;;;;;3.02;60.72;100142.84;4917484;29;20528;-93
2022/11/05 00:44:58;;;;;;;7.70;4.00;;;;;;;3.05;60.53;100129.66;4906155;29;20568;-92
2022/11/05 00:50:02;;;;;;;7.25;3.85;;;;;;;3.05;60.47;100128.84;4947671;29;20039;-91
2022/11/05 00:55:13;;;;;;;8.43;4.38;;;;;;;2.93;61.34;100139.69;4935042;29;20587;-89
2022/11/05 00:57:39;;;;;;;8.80;4.38;;;;;;;2.99;60.88;100148.72;4920738;29;20039;-89
2022/11/05 01:00:06;;;;;;;9.93;4.03;;;;;;;2.98;60.90;100144.34;4921423;29;20031;-90
2022/11/05 01:02:32;;;;;;;8.65;4.35;;;;;;;3.05;60.85;100153.97;4914725;29;20077;-93
2022/11/05 01:04:58;;;;;;;7.65;4.43;;;;;;;2.96;61.19;100155.41;4939001;29;20039;-90
2022/11/05 01:07:24;;;;;;;11.75;3.80;;;;;;;2.80;61.15;100140.00;4924648;29;20043;-93
2022/11/05 01:09:50;;;;;;;6.68;3.55;;;;;;;2.78;61.17;100139.41;4952668;29;20989;-92
2022/11/05 01:12:16;;;;;;;5.22;3.03;;;;;;;2.94;61.21;100178.31;4936848;29;20481;-93
2022/11/05 01:14:42;;;;;;;4.97;2.72;;;;;;;2.76;61.00;100155.03;4920521;29;20043;-92
2022/11/05 01:17:09;;;;;;;5.80;3.13;;;;;;;2.90;60.91;100167.19;4920325;29;20049;-92
2022/11/05 01:19:35;;;;;;;5.07;3.28;;;;;;;2.85;61.06;100166.25;4905538;29;20047;-91
2022/11/05 01:22:01;;;;;;;4.13;2.50;;;;;;;2.82;61.31;100178.38;4920582;29;20034;-91
2022/11/05 01:24:27;;;;;;;5.55;3.00;;;;;;;2.59;61.21;100138.78;4921120;29;20062;-90
2022/11/05 01:26:53;;;;;;;4.65;2.60;;;;;;;2.72;61.60;100178.19;4936642;29;20051;-91
2022/11/05 01:29:19;;;;;;;10.95;2.38;;;;;;;2.69;61.42;100182.19;4937277;29;20040;-92
2022/11/05 01:31:45;;;;;;;7.35;2.92;;;;;;;2.31;61.02;100123.38;4939801;29;20067;-90
2022/11/05 01:34:12;;;;;;;5.13;2.60;;;;;;;2.52;61.25;100179.41;4942673;29;20039;-91
2022/11/05 01:36:38;;;;;;;8.93;2.47;;;;;;;2.40;61.21;100167.00;4924805;29;20055;-91
2022/11/05 01:39:04;;;;;;;5.18;2.72;;;;;;;2.48;61.27;100161.22;4924882;29;20461;-89
2022/11/05 01:41:30;;;;;;;4.68;2.75;;;;;;;2.33;61.53;100165.25;4922489;29;20028;-90
2022/11/05 01:44:00;;;;;;;4.90;2.40;;;;;;;2.23;61.29;100132.66;4908939;28;20726;-93
2022/11/05 01:46:50;;;;;;;7.03;3.03;;;;;;;2.50;61.34;100170.72;4946647;29;20045;-93
2022/11/05 01:49:30;;;;;;;4.60;2.85;;;;;;;2.27;61.44;100152.72;4946061;29;20412;-92
2022/11/05 01:52:10;;;;;;;5.50;2.78;;;;;;;2.69;61.36;100222.69;4940819;29;20039;-89
2022/11/05 01:54:44;;;;;;;5.13;3.03;;;;;;;2.57;61.61;100195.69;4924364;28;20039;-89
2022/11/05 01:57:11;;;;;;;5.70;3.10;;;;;;;2.30;61.10;100132.53;4955113;29;20050;-91
2022/11/05 01:59:44;;;;;;;5.97;2.70;;;;;;;2.70;60.83;100191.91;4940103;29;20039;-90
2022/11/05 02:02:11;;;;;;;4.78;2.58;;;;;;;2.62;60.96;100202.28;4925619;29;20043;-90
2022/11/05 02:04:52;;;;;;;7.03;2.65;;;;;;;2.62;60.95;100199.59;4923391;29;20035;-90
2022/11/05 02:07:20;;;;;;;6.38;3.05;;;;;;;2.43;60.83;100175.44;4934575;29;20040;-92
2022/11/05 02:10:03;;;;;;;4.30;2.58;;;;;;;2.76;60.89;100230.63;4921590;29;20111;-93
2022/11/05 02:12:31;;;;;;;4.55;2.53;;;;;;;2.48;60.90;100177.41;4939256;29;20035;-89
2022/11/05 02:15:04;;;;;;;8.55;2.65;;;;;;;2.53;60.49;100174.84;4907295;29;20039;-93
2022/11/05 02:18:12;;;;;;;6.07;3.00;;;;;;;2.71;60.49;100214.31;4924076;29;20505;-90
2022/11/05 02:21:03;;;;;;;4.38;2.83;;;;;;;2.82;60.56;100238.59;4925479;29;20133;-90
2022/11/05 02:24:01;;;;;;;5.05;3.00;;;;;;;2.48;60.79;100193.59;4897658;29;20049;-91
2022/11/05 02:26:52;;;;;;;4.80;2.60;;;;;;;2.83;60.88;100247.53;4873345;29;20048;-90
2022/11/05 02:29:54;;;;;;;4.43;2.35;;;;;;;2.68;60.90;100231.84;4867535;29;20045;-92
2022/11/05 02:32:37;;;;;;;8.02;3.15;;;;;;;2.65;60.95;100217.97;4879180;29;20519;-92
2022/11/05 02:35:29;;;;;;;5.18;2.80;;;;;;;2.82;60.79;100257.50;4860723;29;20052;-92
2022/11/05 02:38:06;;;;;;;4.57;2.80;;;;;;;2.84;60.75;100257.25;4904281;29;20060;-93
2022/11/05 02:41:10;;;;;;;4.13;2.78;;;;;;;2.62;61.23;100250.88;4866424;29;20068;-93
2022/11/05 02:44:03;;;;;;;10.02;3.50;;;;;;;2.44;61.36;100216.72;4867528;29;20052;-92
2022/11/05 02:46:43;;;;;;;4.68;2.90;;;;;;;2.64;61.50;100256.84;4876479;29;20113;-92
2022/11/05 02:49:47;;;;;;;5.43;3.22;;;;;;;2.59;61.29;100233.25;4895963;29;20045;-88
2022/11/05 02:52:24;;;;;;;5.15;3.33;;;;;;;2.82;61.71;100262.91;4896267;29;20507;-89
2022/11/05 02:55:01;;;;;;;7.18;3.65;;;;;;;2.70;61.08;100237.00;4863946;29;20052;-91
2022/11/05 02:57:29;;;;;;;8.82;3.60;;;;;;;2.63;61.08;100220.94;4878924;29;20530;-90
2022/11/05 03:00:06;;;;;;;15.32;3.97;;;;;;;2.49;61.55;100220.38;4888427;29;20029;-95
2022/11/05 03:02:33;;;;;;;8.52;4.13;;;;;;;2.21;62.42;100202.22;4904620;29;20067;-91
2022/11/05 03:05:01;;;;;;;9.60;4.00;;;;;;;2.60;62.43;100240.28;4915263;29;20065;-92
2022/11/05 03:07:58;;;;;;;7.03;4.00;;;;;;;3.01;61.10;100273.53;4924053;29;20564;-92
2022/11/05 03:10:55;;;;;;;6.22;3.85;;;;;;;3.05;61.12;100267.41;4980394;28;20082;-91
2022/11/05 03:13:40;;;;;;;8.25;4.10;;;;;;;2.93;60.33;100239.63;4948884;28;20076;-90
2022/11/05 03:19:59;;;;;;;5.20;3.08;;;;;;;2.52;61.39;100232.56;4946702;23;20125;-90
2022/11/05 03:23:16;;;;;;;4.30;3.03;;;;;;;2.87;61.33;100275.69;4893303;29;20079;-89
2022/11/05 03:25:47;;;;;;;6.10;3.22;;;;;;;2.87;60.78;100254.06;4889665;29;20545;-89
2022/11/05 03:28:15;;;;;;;5.63;2.80;;;;;;;2.50;60.79;100203.09;4906373;29;20138;-90
2022/11/05 03:30:42;;;;;;;4.95;2.65;;;;;;;2.58;61.00;100232.44;4923465;29;20139;-89
2022/11/05 03:33:51;;;;;;;8.23;3.30;;;;;;;2.96;61.05;100282.34;4909048;29;20040;-90
2022/11/05 03:36:36;;;;;;;5.35;2.90;;;;;;;2.66;61.13;100247.44;4921909;29;20040;-91
2022/11/05 03:39:07;;;;;;;4.13;2.53;;;;;;;2.29;61.21;100212.66;4909137;29;20034;-90
2022/11/05 03:41:42;;;;;;;5.78;3.00;;;;;;;2.30;61.64;100213.47;4892846;29;20036;-88
2022/11/05 03:44:36;;;;;;;7.18;2.90;;;;;;;2.80;61.46;100294.72;4915254;29;20044;-92
2022/11/05 03:47:10;;;;;;;4.47;2.50;;;;;;;2.57;61.45;100259.66;4898298;29;20079;-90
2022/11/05 03:50:10;;;;;;;4.55;2.53;;;;;;;2.64;61.03;100248.72;4907720;29;20044;-90
2022/11/05 03:52:57;;;;;;;6.95;2.47;;;;;;;2.79;61.30;100289.56;4873652;29;20570;-89
2022/11/05 03:58:23;;;;;;;6.40;3.53;;;;;;;2.46;60.64;100237.03;4911858;29;20410;-91
2022/11/05 04:00:50;;;;;;;7.00;2.88;;;;;;;2.51;60.86;100247.91;4910279;29;20044;-90
2022/11/05 04:03:16;;;;;;;12.32;2.90;;;;;;;2.70;60.72;100272.91;4916583;29;20040;-91
2022/11/05 04:05:42;;;;;;;7.88;3.13;;;;;;;2.66;60.68;100252.03;4912213;29;20135;-90
2022/11/05 04:13:38;;;;;;;4.20;2.28;;;;;;;3.18;60.39;100322.22;4919670;29;20032;-93
2022/11/05 06:01:15;;;;;;;32.92;4.15;;;;;;;2.58;60.83;100337.72;4879019;29;20044;-92
2022/11/05 06:03:44;;;;;;;19.27;3.60;;;;;;;2.80;60.79;100358.72;4897562;29;20044;-95
2022/11/05 06:06:12;;;;;;;20.10;4.00;;;;;;;2.92;60.69;100378.44;4881490;29;20045;-89
2022/11/05 06:08:38;;;;;;;19.38;4.40;;;;;;;2.90;60.67;100368.91;4893796;29;20036;-88
2022/11/05 06:11:05;;;;;;;19.48;4.20;;;;;;;2.71;60.41;100333.94;4892586;29;20135;-91
2022/11/05 06:13:32;;;;;;;14.07;3.40;;;;;;;3.16;60.40;100416.22;4910084;29;20135;-88
2022/11/05 06:16:07;;;;;;;10.83;3.27;;;;;;;3.06;60.51;100387.09;4895514;29;20414;-88
2022/11/05 06:18:34;;;;;;;9.70;3.03;;;;;;;3.05;60.36;100390.88;4901403;29;20304;-89
2022/11/05 06:21:11;;;;;;;8.65;3.10;;;;;;;3.07;60.67;100388.72;4912680;29;20487;-86
2022/11/05 06:23:40;;;;;;;7.43;3.85;;;;;;;3.21;61.47;100422.56;4893924;29;20211;-87
2022/11/05 06:26:08;;;;;;;12.02;3.45;;;;;;;3.34;61.20;100413.34;4901838;29;20033;-88
2022/11/05 06:28:35;;;;;;;20.25;3.50;;;;;;;3.35;60.61;100425.84;4869424;29;20053;-87
2022/11/05 06:31:01;;;;;;;31.15;4.70;;;;;;;3.04;60.19;100378.41;4912400;29;20041;-87
2022/11/05 06:33:28;;;;;;;10.38;3.33;;;;;;;3.22;59.89;100396.38;4897361;29;20076;-87
2022/11/05 06:35:58;;;;;;;7.35;2.90;;;;;;;3.30;59.90;100395.97;4893620;29;20033;-87
2022/11/05 06:38:24;;;;;;;10.88;2.63;;;;;;;3.44;59.75;100399.22;4922401;29;20051;-87
2022/11/05 06:40:50;;;;;;;7.82;2.72;;;;;;;3.34;59.75;100404.44;4914328;29;20387;-88
2022/11/05 06:43:16;;;;;;;7.03;2.78;;;;;;;3.52;58.75;100398.88;4882396;29;20045;-88
2022/11/05 06:45:42;;;;;;;18.65;3.13;;;;;;;3.83;58.10;100421.91;4912680;29;20130;-88
2022/11/05 06:48:09;;;;;;;29.60;3.58;;;;;;;3.93;57.68;100429.41;4927643;29;20068;-89
2022/11/05 06:50:35;;;;;;;13.40;2.80;;;;;;;3.80;56.99;100424.28;4898862;29;20183;-90
2022/11/05 06:53:03;;;;;;;32.05;3.65;;;;;;;3.49;57.63;100388.53;4882141;29;20177;-87
2022/11/05 06:55:35;;;;;;;34.35;3.38;;;;;;;3.22;57.78;100385.56;4897585;29;20119;-89
2022/11/05 06:58:02;;;;;;;19.70;3.22;;;;;;;3.52;57.77;100420.50;4895754;29;20044;-87
2022/11/05 07:00:28;;;;;;;15.43;3.03;;;;;;;3.26;57.94;100394.81;4912324;29;20502;-90
2022/11/05 07:02:57;;;;;;;24.48;3.60;;;;;;;3.41;57.94;100421.34;4903549;29;20379;-87
2022/11/05 07:05:24;;;;;;;23.15;3.47;;;;;;;3.53;58.52;100436.47;4883027;29;20419;-86
2022/11/05 07:07:50;;;;;;;;;;;;;;;3.57;58.14;100453.03;4909099;29;20175;-86
2022/11/05 07:10:17;;;;;;;19.83;2.92;;;;;;;3.59;57.64;100463.63;4912442;29;20559;-88
2022/11/05 07:12:43;;;;;;;12.15;3.35;;;;;;;3.41;57.56;100446.50;4893243;29;20096;-87
2022/11/05 07:15:11;;;;;;;16.13;2.80;;;;;;;3.36;58.67;100459.09;4881673;29;20139;-89
2022/11/05 07:17:37;;;;;;;;;;;;;;;3.43;57.87;100447.06;4892770;29;20044;-88
2022/11/05 07:20:07;;;;;;;42.63;4.38;;;;;;;3.43;57.52;100441.66;4881278;29;19923;-89
2022/11/05 07:22:34;;;;;;;50.30;4.43;;;;;;;3.35;57.12;100398.81;4894643;29;20056;-87
2022/11/05 07:25:01;;;;;;;49.88;5.60;;;;;;;3.60;57.04;100436.34;4896423;29;20056;-88
2022/11/05 07:27:30;;;;;;;43.63;4.88;;;;;;;3.45;57.21;100407.13;4895669;29;20160;-89
2022/11/05 07:29:56;;;;;;;;;;;;;;;3.80;56.70;100462.16;4897740;29;20414;-87
2022/11/05 07:32:22;;;;;;;23.23;4.00;;;;;;;3.70;56.39;100455.47;4898341;29;19931;-90
2022/11/05 07:34:48;;;;;;;60.97;5.35;;;;;;;3.52;56.60;100407.81;4895812;29;20123;-89
2022/11/05 07:37:15;;;;;;;17.63;2.95;;;;;;;3.28;56.25;100414.34;4901906;29;20040;-87
2022/11/05 07:39:42;;;;;;;24.77;3.45;;;;;;;3.76;56.80;100470.75;4882355;29;20040;-89
2022/11/05 07:42:12;;;;;;;31.07;3.97;;;;;;;3.53;56.27;100449.16;4895616;29;20051;-91
2022/11/05 07:44:39;;;;;;;25.60;3.72;;;;;;;3.35;56.81;100449.34;4869489;29;20400;-90
2022/11/05 07:47:05;;;;;;;14.70;3.28;;;;;;;3.20;56.33;100422.78;4896112;29;20044;-90
2022/11/05 07:49:32;;;;;;;19.15;3.60;;;;;;;3.76;56.10;100491.56;4912504;29;20076;-90
2022/11/05 07:51:59;;;;;;;7.05;2.78;;;;;;;3.30;55.85;100423.00;4898235;29;20048;-90
2022/11/05 07:54:25;;;;;;;;;;;;;;;3.76;56.03;100483.44;4914339;29;20052;-91
2022/11/05 07:56:53;;;;;;;8.73;2.83;;;;;;;3.48;56.09;100451.78;4900014;29;19923;-92
2022/11/05 07:59:19;;;;;;;14.95;4.15;;;;;;;3.88;56.15;100500.47;4904248;29;20480;-92
2022/11/05 08:01:45;;;;;;;11.60;3.42;;;;;;;3.94;55.89;100499.53;4884115;29;20047;-89
2022/11/05 08:04:11;;;;;;;22.65;3.40;;;;;;;3.90;55.76;100455.06;4852768;29;20106;-90
2022/11/05 08:06:38;;;;;;;10.57;4.10;;;;;;;3.79;54.89;100445.09;4900352;29;20149;-88
2022/11/05 08:09:04;;;;;;;8.10;2.70;;;;;;;3.64;55.48;100442.09;4862298;29;20420;-90
2022/11/05 08:11:31;;;;;;;;;;;;;;;3.89;56.00;100495.88;4877919;29;20064;-90
2022/11/05 08:13:57;;;;;;;18.23;4.57;;;;;;;3.67;56.13;100447.00;4881271;29;20406;-90
2022/11/05 08:16:24;;;;;;;14.00;3.77;;;;;;;3.67;55.65;100426.19;4881287;29;20550;-92
2022/11/05 08:18:50;;;;;;;22.52;4.50;;;;;;;4.03;55.79;100472.06;4874028;29;20067;-91
2022/11/05 08:21:16;;;;;;;13.20;3.90;;;;;;;4.07;55.98;100509.22;4892937;29;20052;-89
2022/11/05 08:23:42;;;;;;;20.25;4.03;;;;;;;3.98;55.79;100472.81;4874198;29;20044;-90
2022/11/05 08:26:09;;;;;;;19.13;4.87;;;;;;;4.09;55.99;100471.09;4909042;29;20079;-94
2022/11/05 08:28:35;;;;;;;28.23;4.55;;;;;;;4.27;55.34;100505.25;4879081;29;20041;-91
2022/11/05 08:31:01;;;;;;;14.27;3.75;;;;;;;3.89;55.55;100445.31;4874387;29;20501;-91
2022/11/05 08:33:30;;;;;;;15.88;4.20;;;;;;;3.94;54.86;100448.13;4893948;29;20100;-90
2022/11/05 08:36:01;;;;;;;25.90;4.53;;;;;;;4.08;54.76;100473.00;4859879;29;20065;-90
2022/11/05 08:38:27;;;;;;;20.00;4.28;;;;;;;4.36;54.87;100504.63;4860790;29;20041;-93
2022/11/05 08:40:56;;;;;;;11.52;3.40;;;;;;;4.40;54.57;100505.81;4871082;29;20124;-88
2022/11/05 08:43:24;;;;;;;19.52;3.55;;;;;;;4.39;54.84;100512.28;4895624;29;20077;-88
2022/11/05 08:45:50;;;;;;;18.35;3.95;;;;;;;3.93;54.58;100430.22;4891388;29;20056;-89
2022/11/05 08:48:18;;;;;;;33.05;4.97;;;;;;;3.97;54.85;100441.38;4879926;29;20524;-88
2022/11/05 08:50:46;;;;;;;31.75;4.97;;;;;;;4.32;54.54;100489.94;4894247;29;20052;-90
2022/11/05 08:53:13;;;;;;;18.30;4.15;;;;;;;4.08;54.68;100458.66;4862856;29;20112;-89
2022/11/05 08:55:39;;;;;;;19.35;4.20;;;;;;;4.08;54.86;100451.34;4864183;29;20476;-90
2022/11/05 08:58:13;;;;;;;24.38;4.78;;;;;;;4.12;55.31;100468.75;4877683;29;20033;-90
2022/11/05 09:00:40;;;;;;;33.13;4.63;;;;;;;4.17;55.07;100470.72;4904175;29;20102;-91
2022/11/05 09:03:10;;;;;;;23.55;4.90;;;;;;;4.10;55.26;100445.69;4914331;29;20051;-91
2022/11/05 09:05:38;;;;;;;23.02;4.97;;;;;;;4.40;55.21;100483.31;4906966;29;20051;-91
2022/11/05 09:08:09;;;;;;;16.40;5.40;;;;;;;4.37;55.69;100490.06;4916825;29;20067;-90
2022/11/05 09:10:36;;;;;;;27.50;4.88;;;;;;;4.53;55.74;100499.25;4879902;29;20131;-91
2022/11/05 09:13:03;;;;;;;19.05;4.10;;;;;;;4.34;54.88;100455.34;4904220;29;20183;-89
2022/11/05 09:15:30;;;;;;;24.15;4.60;;;;;;;4.33;53.75;100452.88;4895342;29;20048;-91
2022/11/05 09:17:56;;;;;;;20.67;4.43;;;;;;;4.44;53.88;100473.66;4898088;29;20048;-88
2022/11/05 09:20:22;;;;;;;12.90;4.10;;;;;;;4.30;54.03;100458.75;4911612;29;20043;-88
2022/11/05 09:22:48;;;;;;;20.65;3.85;;;;;;;4.68;53.39;100499.53;4928838;29;20044;-91
2022/11/05 09:25:15;;;;;;;10.43;3.88;;;;;;;4.59;53.24;100497.47;4924437;29;20130;-89
2022/11/05 09:27:44;;;;;;;19.40;4.30;;;;;;;4.46;54.19;100512.94;4898742;29;20510;-87
2022/11/05 09:30:11;;;;;;;16.40;4.20;;;;;;;4.37;54.24;100494.63;4894023;29;20100;-90
2022/11/05 09:32:37;;;;;;;;;;;;;;;4.59;53.84;100511.81;4895802;29;20059;-86
2022/11/05 09:35:04;;;;;;;;;;;;;;;4.64;53.51;100513.81;4893820;29;20381;-87
2022/11/05 09:37:31;;;;;;;18.08;4.93;;;;;;;4.12;53.92;100467.91;4910386;29;19935;-89
2022/11/05 09:39:57;;;;;;;15.30;4.00;;;;;;;4.08;54.93;100477.59;4895014;29;20482;-90
2022/11/05 09:42:29;;;;;;;16.52;3.97;;;;;;;4.36;54.57;100511.94;4898063;29;20045;-88
2022/11/05 09:45:02;;;;;;;13.27;3.63;;;;;;;4.40;54.42;100510.38;4878064;29;20077;-91
2022/11/05 09:47:38;;;;;;;16.05;3.55;;;;;;;4.31;54.82;100509.97;4879015;29;20518;-89
2022/11/05 09:50:16;;;;;;;28.65;4.68;;;;;;;4.20;54.78;100467.53;4879158;29;20044;-90
2022/11/05 09:52:42;;;;;;;14.05;3.78;;;;;;;4.33;54.08;100482.66;4877275;29;20475;-90
2022/11/05 09:55:25;;;;;;;10.13;3.67;;;;;;;4.28;53.20;100485.28;4914917;29;20091;-91
2022/11/05 09:57:56;;;;;;;6.78;3.30;;;;;;;4.36;53.10;100517.34;4882472;29;20091;-87
2022/11/05 10:00:22;;;;;;;11.98;3.47;;;;;;;4.41;53.73;100515.56;4889478;29;20143;-86
2022/11/05 10:03:12;;;;;;;11.32;3.88;;;;;;;3.92;54.19;100500.81;4856377;29;20041;-90
2022/11/05 10:05:39;;;;;;;17.27;3.83;;;;;;;4.50;53.96;100542.25;4880207;29;20048;-88
2022/11/05 10:08:35;;;;;;;9.32;3.50;;;;;;;4.53;53.03;100520.91;4879939;29;20049;-90
2022/11/05 10:11:06;;;;;;;6.28;3.60;;;;;;;4.50;52.52;100505.16;4878811;29;20416;-87
2022/11/05 10:13:46;;;;;;;10.35;3.92;;;;;;;4.55;52.77;100509.84;4886419;29;20436;-91
2022/11/05 10:16:25;;;;;;;6.85;3.17;;;;;;;4.66;52.73;100541.47;4880124;29;20045;-87
2022/11/05 10:19:13;;;;;;;11.15;4.00;;;;;;;4.39;53.07;100500.63;4864813;29;20523;-90
2022/11/05 10:21:43;;;;;;;15.43;5.05;;;;;;;4.56;53.28;100533.16;4885882;29;20044;-89
2022/11/05 10:24:15;;;;;;;16.67;5.45;;;;;;;4.56;52.82;100533.97;4888454;29;20102;-88
2022/11/05 10:26:42;;;;;;;16.92;5.78;;;;;;;4.43;52.96;100509.91;4879285;29;20073;-88
2022/11/05 10:29:13;;;;;;;9.40;3.95;;;;;;;4.72;53.10;100540.50;4864015;29;20180;-86
2022/11/05 10:31:39;;;;;;;8.32;3.20;;;;;;;4.52;52.44;100485.97;4881221;29;20037;-85
2022/11/05 10:34:12;;;;;;;9.43;3.17;;;;;;;4.52;52.57;100475.13;4899580;29;20071;-87
2022/11/05 10:36:38;;;;;;;10.70;4.00;;;;;;;4.69;53.04;100517.41;4898177;29;20043;-88
2022/11/05 10:39:16;;;;;;;9.82;3.67;;;;;;;4.81;52.54;100525.47;4882104;29;20051;-87
2022/11/05 10:42:10;;;;;;;11.38;4.03;;;;;;;4.58;52.38;100482.28;4887612;29;20045;-88
2022/11/05 10:45:16;;;;;;;10.23;4.00;;;;;;;4.95;52.40;100536.81;4883746;29;20070;-86
2022/11/05 10:48:02;;;;;;;7.32;3.28;;;;;;;4.90;52.44;100540.28;4913365;29;20513;-88
2022/11/05 10:50:29;;;;;;;13.93;4.25;;;;;;;4.83;52.77;100509.78;4913974;29;20068;-86
2022/11/05 10:53:06;;;;;;;7.53;3.85;;;;;;;4.94;53.13;100535.19;4869248;29;20037;-89
2022/11/05 10:55:32;;;;;;;8.00;3.88;;;;;;;5.00;52.83;100545.03;4870822;29;20724;-85
2022/11/05 10:58:18;;;;;;;19.08;4.60;;;;;;;5.02;52.94;100544.78;4898806;29;20056;-86
2022/11/05 11:00:52;;;;;;;17.08;4.93;;;;;;;5.03;53.42;100538.28;4888282;29;20057;-89
2022/11/05 11:03:36;;;;;;;12.38;4.90;;;;;;;4.99;53.40;100556.13;4879342;29;20045;-86
2022/11/05 11:06:11;;;;;;;19.75;5.50;;;;;;;4.78;53.27;100523.25;4849220;29;20575;-86
2022/11/05 11:08:37;;;;;;;13.43;5.68;;;;;;;4.92;53.46;100540.84;4893158;29;20133;-90
2022/11/05 11:11:11;;;;;;;8.97;4.87;;;;;;;4.69;53.11;100546.38;4901581;29;20040;-92
2022/11/05 11:13:55;;;;;;;8.27;4.80;;;;;;;4.43;53.42;100564.06;4883590;29;20468;-89
2022/11/05 11:16:27;;;;;;;7.72;5.03;;;;;;;4.13;53.74;100502.03;4883261;29;20073;-87
2022/11/05 11:19:01;;;;;;;14.85;4.88;;;;;;;4.24;54.07;100512.00;4882321;29;20052;-89
2022/11/05 11:21:30;;;;;;;11.23;5.43;;;;;;;4.62;53.72;100556.56;4898068;29;20084;-88
2022/11/05 11:24:01;;;;;;;12.65;6.43;;;;;;;4.73;53.41;100547.53;4881994;29;20063;-87
2022/11/05 11:26:37;;;;;;;14.77;5.50;;;;;;;4.40;53.12;100511.22;4881953;29;20048;-89
2022/11/05 11:29:14;;;;;;;14.02;4.93;;;;;;;4.85;53.35;100572.69;4865161;29;20416;-89
2022/11/05 11:31:41;;;;;;;16.83;6.07;;;;;;;4.74;53.74;100530.25;4879233;29;20078;-88
2022/11/05 11:34:22;;;;;;;19.88;4.93;;;;;;;4.52;53.19;100511.16;4862338;29;20489;-89
2022/11/05 11:36:52;;;;;;;17.55;5.65;;;;;;;4.71;52.90;100546.97;4875871;29;20069;-87
2022/11/05 11:39:24;;;;;;;13.88;6.13;;;;;;;4.47;53.54;100530.84;4868347;29;20041;-87
2022/11/05 11:41:54;;;;;;;17.25;6.30;;;;;;;4.53;53.63;100558.81;4896452;29;20040;-90
2022/11/05 11:44:26;;;;;;;12.88;5.03;;;;;;;4.62;53.14;100548.44;4880998;29;20040;-91
2022/11/05 11:46:59;;;;;;;24.70;6.30;;;;;;;4.38;53.42;100532.28;4881618;29;20036;-90
2022/11/05 11:49:41;;;;;;;13.95;5.50;;;;;;;4.76;53.39;100578.75;4864278;29;20084;-89
2022/11/05 11:52:18;;;;;;;13.55;5.85;;;;;;;4.86;53.74;100585.16;4860562;29;20045;-87
2022/11/05 11:54:46;;;;;;;11.32;6.20;;;;;;;4.75;52.59;100571.69;4876612;29;20128;-89
2022/11/05 11:57:28;;;;;;;11.23;6.28;;;;;;;4.78;53.36;100546.81;4873304;29;20044;-89
2022/11/05 11:59:57;;;;;;;15.98;6.13;;;;;;;5.00;52.89;100560.47;4879742;29;20068;-90
2022/11/05 12:02:45;;;;;;;36.40;7.30;;;;;;;5.15;52.32;100576.97;4897882;29;20526;-89
2022/11/05 12:05:24;;;;;;;14.68;6.22;;;;;;;4.75;52.36;100526.47;4876700;29;20179;-88
2022/11/05 12:07:54;;;;;;;28.30;7.20;;;;;;;4.61;52.25;100519.72;4889609;29;20109;-88
2022/11/05 12:11:00;;;;;;;32.53;7.18;;;;;;;4.81;52.66;100566.13;4860251;29;20128;-89
2022/11/05 12:14:01;;;;;;;20.52;6.38;;;;;;;4.83;52.67;100590.25;4891538;29;20508;-89
2022/11/05 12:16:44;;;;;;;10.65;5.63;;;;;;;4.36;52.99;100534.41;4860639;29;20049;-90
2022/11/05 12:19:18;;;;;;;23.63;6.60;;;;;;;4.72;53.35;100589.25;4893865;29;20045;-87
2022/11/05 12:22:09;;;;;;;25.27;7.13;;;;;;;4.68;52.89;100591.63;4892287;29;20049;-90
2022/11/05 12:25:09;;;;;;;23.90;6.97;;;;;;;4.58;53.12;100564.34;4879543;29;20049;-90
2022/11/05 12:27:43;;;;;;;21.83;7.43;;;;;;;4.48;53.60;100534.38;4873277;29;20049;-89
2022/11/05 12:30:11;;;;;;;27.73;6.20;;;;;;;4.68;53.41;100571.84;4874409;29;20144;-90
2022/11/05 12:33:02;;;;;;;20.08;7.20;;;;;;;4.47;53.45;100549.00;4888698;29;20481;-89
2022/11/05 12:36:07;;;;;;;13.00;6.90;;;;;;;4.55;54.28;100586.50;4861176;29;20184;-92
2022/11/05 12:38:55;;;;;;;20.80;7.18;;;;;;;4.15;54.79;100529.69;4874698;29;20037;-92
2022/11/05 12:41:27;;;;;;;24.92;8.85;;;;;;;4.70;54.58;100599.50;4892766;29;20053;-87
2022/11/05 12:44:05;;;;;;;20.00;7.97;;;;;;;4.59;54.08;100584.94;4876954;29;20515;-90
2022/11/05 12:46:56;;;;;;;24.38;10.65;;;;;;;4.19;54.65;100537.06;4858488;29;20533;-92
2022/11/05 12:49:58;;;;;;;115.55;38.22;;;;;;;4.31;54.92;100566.81;4858055;29;20036;-91
2022/11/05 12:52:43;;;;;;;35.03;9.98;;;;;;;4.57;54.28;100602.50;4879455;29;20041;-90
2022/11/05 12:55:17;;;;;;;26.55;8.93;;;;;;;4.18;54.34;100561.69;4862159;29;20052;-89
2022/11/05 12:57:48;;;;;;;328.38;123.50;;;;;;;4.29;54.30;100585.16;4860104;29;20033;-91
2022/11/05 13:00:20;;;;;;;92.18;30.02;;;;;;;4.65;55.00;100610.25;4860815;29;20079;-89
2022/11/05 13:03:43;;;;;;;45.05;13.20;;;;;;;4.76;54.48;100609.38;4902584;29;20148;-92
2022/11/05 13:06:17;;;;;;;47.78;11.15;;;;;;;4.28;55.12;100556.47;4792323;29;20051;-92
2022/11/05 13:08:53;;;;;;;31.83;9.48;;;;;;;4.36;53.90;100536.31;4782163;29;20045;-89
2022/11/05 13:11:42;;;;;;;21.73;8.50;;;;;;;4.42;54.70;100568.66;4835301;29;20059;-92
2022/11/05 13:14:46;;;;;;;29.92;11.10;;;;;;;4.80;54.13;100610.53;4883478;29;20522;-90
2022/11/05 13:17:17;;;;;;;46.65;12.75;;;;;;;4.56;54.47;100598.16;4885812;29;20060;-92
2022/11/05 13:20:23;;;;;;;23.50;9.13;;;;;;;4.77;53.93;100613.72;4867211;29;20039;-89
2022/11/05 13:23:23;;;;;;;169.88;68.18;;;;;;;4.41;54.11;100556.19;4875862;29;20080;-89
2022/11/05 13:25:55;;;;;;;94.93;30.15;;;;;;;4.35;54.50;100559.03;4849026;29;20094;-89
2022/11/05 13:28:45;;;;;;;30.08;10.18;;;;;;;4.62;54.12;100619.66;4856325;29;20061;-88
2022/11/05 13:31:18;;;;;;;27.80;10.02;;;;;;;4.10;54.33;100543.09;4840384;29;20056;-90
2022/11/05 13:33:50;;;;;;;17.98;8.40;;;;;;;4.29;54.40;100597.91;4826790;29;20041;-90
2022/11/05 13:39:22;;;;;;;28.30;8.20;;;;;;;3.97;54.99;100598.31;4842851;29;20109;-89
2022/11/05 13:42:14;;;;;;;27.92;8.35;;;;;;;4.16;55.81;100628.75;4817965;29;20097;-89
2022/11/05 13:45:07;;;;;;;28.67;9.95;;;;;;;3.54;55.86;100575.16;4834645;29;20045;-89
2022/11/05 13:48:19;;;;;;;17.60;7.55;;;;;;;3.99;55.16;100656.53;4823302;29;20056;-92
2022/11/05 13:51:22;;;;;;;30.77;8.55;;;;;;;3.95;55.48;100666.19;4851459;29;20046;-90
2022/11/05 13:54:17;;;;;;;13.68;7.47;;;;;;;3.61;56.09;100667.00;4866363;29;20042;-91
2022/11/05 13:57:16;;;;;;;14.90;7.70;;;;;;;3.67;56.61;100669.56;4822382;29;20858;-86
2022/11/05 14:00:10;;;;;;;24.42;9.30;;;;;;;3.78;57.03;100657.16;4858484;29;20049;-87
2022/11/05 14:03:02;;;;;;;31.27;8.10;;;;;;;3.85;56.27;100640.78;4874426;29;20104;-86
2022/11/05 14:05:33;;;;;;;16.45;8.18;;;;;;;3.88;56.01;100635.72;4882320;29;20187;-91
2022/11/05 14:08:09;;;;;;;18.70;7.40;;;;;;;3.96;55.74;100629.94;4920743;29;20460;-88
2022/11/05 14:10:46;;;;;;;16.55;7.75;;;;;;;3.91;55.72;100601.97;4893409;29;20041;-85
2022/11/05 14:13:31;;;;;;;28.27;8.40;;;;;;;4.28;54.86;100653.91;4873894;29;20116;-89
2022/11/05 14:16:07;;;;;;;22.92;8.73;;;;;;;4.30;54.94;100646.38;4925109;29;20091;-95
2022/11/05 14:18:35;;;;;;;19.05;8.55;;;;;;;4.55;54.64;100675.88;4889359;29;20097;-92
2022/11/05 14:21:06;;;;;;;34.95;9.95;;;;;;;4.23;54.30;100619.44;4887668;29;20499;-85
2022/11/05 14:23:38;;;;;;;31.08;7.50;;;;;;;4.61;54.77;100677.63;4904068;29;20051;-87
2022/11/05 14:26:28;;;;;;;15.38;8.20;;;;;;;4.32;54.24;100627.19;4917773;29;20555;-89
2022/11/05 14:29:03;;;;;;;14.05;7.57;;;;;;;4.62;53.80;100671.13;4883828;29;20047;-88